Time;durP1;ratioP1;P1;durP2;ratioP2;P2;SDS_P1;SDS_P2;PMS_P1;PMS_P2;Temp;Humidity;BMP_temperature;BMP_pressure;BME280_temperature;BME280_humidity;BME280_pressure;Samples;Min_cycle;Max_cycle;Signal;HPM_P1;HPM_P2
2022/03/19 00:01:15;;;;;;;57.85;37.30;;;;;;;;;;7352973;19;20131;-71
2022/03/19 00:03:44;;;;;;;69.15;39.10;;;;;;;;;;7340677;19;20138;-71
2022/03/19 00:06:14;;;;;;;66.25;36.63;;;;;;;;;;7339525;19;20280;-73
2022/03/19 00:08:46;;;;;;;60.28;36.25;;;;;;;;;;7338166;19;20604;-74
2022/03/19 00:11:20;;;;;;;65.15;37.42;;;;;;;;;;7335647;19;20773;-73
2022/03/19 00:13:52;;;;;;;64.35;34.67;;;;;;;;;;7362485;19;20235;-73
2022/03/19 00:16:22;;;;;;;58.10;35.63;;;;;;;;;;7374443;19;20581;-71
2022/03/19 00:18:51;;;;;;;67.78;36.38;;;;;;;;;;7376535;19;20532;-72
2022/03/19 00:21:21;;;;;;;61.83;35.60;;;;;;;;;;7365891;19;20157;-74
2022/03/19 00:23:51;;;;;;;59.10;35.08;;;;;;;;;;7371769;19;20815;-72
2022/03/19 00:26:21;;;;;;;66.35;36.83;;;;;;;;;;7377447;19;20130;-72
2022/03/19 00:28:53;;;;;;;59.30;36.80;;;;;;;;;;7376871;19;20230;-72
2022/03/19 00:31:22;;;;;;;58.60;35.75;;;;;;;;;;7367616;19;20643;-73
2022/03/19 00:33:52;;;;;;;54.20;36.38;;;;;;;;;;7373849;19;20138;-73
2022/03/19 00:36:22;;;;;;;58.85;35.17;;;;;;;;;;7373014;19;20912;-72
2022/03/19 00:38:51;;;;;;;60.92;36.55;;;;;;;;;;7367136;19;20249;-74
2022/03/19 00:41:23;;;;;;;59.60;37.67;;;;;;;;;;7376160;19;20134;-74
2022/03/19 00:43:55;;;;;;;62.08;37.53;;;;;;;;;;7369628;19;20139;-73
2022/03/19 00:46:25;;;;;;;60.90;36.88;;;;;;;;;;7362450;19;20673;-73
2022/03/19 00:48:54;;;;;;;60.05;35.92;;;;;;;;;;7350734;19;20124;-74
2022/03/19 00:51:26;;;;;;;57.95;36.20;;;;;;;;;;7354244;19;21000;-73
2022/03/19 00:53:56;;;;;;;71.00;40.03;;;;;;;;;;7343152;19;20154;-74
2022/03/19 00:56:26;;;;;;;61.38;36.63;;;;;;;;;;7354242;19;20159;-72
2022/03/19 00:58:58;;;;;;;61.60;36.67;;;;;;;;;;7344539;19;20143;-73
2022/03/19 01:01:28;;;;;;;60.00;37.20;;;;;;;;;;7349595;19;20149;-74
2022/03/19 01:03:57;;;;;;;57.80;36.42;;;;;;;;;;7352054;19;20146;-72
2022/03/19 01:06:27;;;;;;;59.00;36.22;;;;;;;;;;7369295;19;20136;-73
2022/03/19 01:08:59;;;;;;;63.58;35.75;;;;;;;;;;7371154;19;20138;-75
2022/03/19 01:11:29;;;;;;;57.78;34.42;;;;;;;;;;7343119;19;20131;-73
2022/03/19 01:14:07;;;;;;;62.58;35.08;;;;;;;;;;7339844;19;20181;-73
2022/03/19 01:16:38;;;;;;;63.33;37.28;;;;;;;;;;7351727;19;20135;-73
2022/03/19 01:19:10;;;;;;;60.17;36.95;;;;;;;;;;7343023;19;20135;-73
2022/03/19 01:21:40;;;;;;;54.83;33.90;;;;;;;;;;7341865;19;20229;-72
2022/03/19 01:24:10;;;;;;;55.67;32.40;;;;;;;;;;7353670;19;20162;-73
2022/03/19 01:26:41;;;;;;;50.95;33.05;;;;;;;;;;7343198;19;20799;-72
2022/03/19 01:29:13;;;;;;;61.08;34.95;;;;;;;;;;7343627;19;20123;-73
2022/03/19 01:31:43;;;;;;;55.88;35.30;;;;;;;;;;7343618;19;20135;-73
2022/03/19 01:34:12;;;;;;;54.97;33.85;;;;;;;;;;7353430;19;20123;-73
2022/03/19 01:36:42;;;;;;;61.38;35.70;;;;;;;;;;7349373;19;20997;-73
2022/03/19 01:39:11;;;;;;;58.53;34.75;;;;;;;;;;7353366;19;21163;-73
2022/03/19 01:41:44;;;;;;;51.53;33.78;;;;;;;;;;7344006;19;20139;-73
2022/03/19 01:44:23;;;;;;;58.83;34.30;;;;;;;;;;7347891;19;20136;-73
2022/03/19 01:46:59;;;;;;;52.90;34.03;;;;;;;;;;7353436;19;20624;-72
2022/03/19 01:49:29;;;;;;;59.63;34.67;;;;;;;;;;7342926;19;20139;-73
2022/03/19 01:51:59;;;;;;;52.20;32.72;;;;;;;;;;7337621;19;20219;-73
2022/03/19 01:54:29;;;;;;;56.45;34.67;;;;;;;;;;7349248;19;20159;-72
2022/03/19 01:56:59;;;;;;;53.80;34.28;;;;;;;;;;7358268;19;20128;-73
2022/03/19 01:59:34;;;;;;;53.53;34.45;;;;;;;;;;7372317;19;20859;-73
2022/03/19 02:02:05;;;;;;;58.60;36.00;;;;;;;;;;7356869;19;20139;-73
2022/03/19 02:04:37;;;;;;;55.05;33.58;;;;;;;;;;7360365;19;20139;-73
2022/03/19 02:07:07;;;;;;;52.53;32.67;;;;;;;;;;7344740;19;20143;-72
2022/03/19 02:09:37;;;;;;;48.55;31.40;;;;;;;;;;7352997;19;20161;-73
2022/03/19 02:12:07;;;;;;;51.80;32.97;;;;;;;;;;7340268;19;20230;-72
2022/03/19 02:14:39;;;;;;;54.15;33.78;;;;;;;;;;7360209;19;20629;-73
2022/03/19 02:17:10;;;;;;;50.90;32.75;;;;;;;;;;7350702;19;20136;-73
2022/03/19 02:19:49;;;;;;;53.80;32.20;;;;;;;;;;7373071;19;20140;-72
2022/03/19 02:22:19;;;;;;;49.88;31.90;;;;;;;;;;7386783;19;20563;-73
2022/03/19 02:27:37;;;;;;;51.75;33.20;;;;;;;;;;7384678;19;20143;-73
2022/03/19 02:30:08;;;;;;;56.88;33.60;;;;;;;;;;7353919;19;20625;-73
2022/03/19 02:32:38;;;;;;;53.47;31.30;;;;;;;;;;7350737;19;20143;-72
2022/03/19 02:35:09;;;;;;;49.78;30.52;;;;;;;;;;7372597;19;20612;-73
2022/03/19 02:37:43;;;;;;;59.00;33.70;;;;;;;;;;7359055;19;20256;-73
2022/03/19 02:40:16;;;;;;;52.63;33.70;;;;;;;;;;7386404;19;20162;-72
2022/03/19 02:42:50;;;;;;;51.42;31.90;;;;;;;;;;7374670;19;20775;-73
2022/03/19 02:45:21;;;;;;;47.85;29.85;;;;;;;;;;7357240;19;20127;-74
2022/03/19 02:48:01;;;;;;;54.63;32.60;;;;;;;;;;7349760;19;20171;-73
2022/03/19 02:50:32;;;;;;;51.15;30.98;;;;;;;;;;7348433;19;20593;-73
2022/03/19 02:53:02;;;;;;;50.22;31.17;;;;;;;;;;7345875;19;20139;-73
2022/03/19 02:55:39;;;;;;;48.50;31.65;;;;;;;;;;7352846;19;20183;-73
2022/03/19 02:58:12;;;;;;;60.42;34.03;;;;;;;;;;7349997;19;21299;-73
2022/03/19 03:00:44;;;;;;;54.97;32.78;;;;;;;;;;7349978;19;20143;-72
2022/03/19 03:03:13;;;;;;;48.60;32.47;;;;;;;;;;7349050;19;20501;-73
2022/03/19 03:05:46;;;;;;;50.05;31.48;;;;;;;;;;7341648;19;20135;-73
2022/03/19 03:08:16;;;;;;;51.88;31.88;;;;;;;;;;7370856;19;20146;-72
2022/03/19 03:10:48;;;;;;;53.17;32.63;;;;;;;;;;7359488;19;20141;-73
2022/03/19 03:13:18;;;;;;;48.17;30.38;;;;;;;;;;7346322;19;21183;-74
2022/03/19 03:15:48;;;;;;;53.10;29.95;;;;;;;;;;7343408;19;20145;-73
2022/03/19 03:18:17;;;;;;;47.70;30.92;;;;;;;;;;7344522;19;20143;-72
2022/03/19 03:20:49;;;;;;;53.10;33.10;;;;;;;;;;7346002;19;20142;-72
2022/03/19 03:23:21;;;;;;;50.88;32.58;;;;;;;;;;7345812;19;20135;-72
2022/03/19 03:25:53;;;;;;;54.22;31.80;;;;;;;;;;7355031;19;21178;-72
2022/03/19 03:28:22;;;;;;;51.55;31.05;;;;;;;;;;7338723;19;20857;-72
2022/03/19 03:30:55;;;;;;;48.42;31.48;;;;;;;;;;7343251;19;20136;-73
2022/03/19 03:33:27;;;;;;;51.83;32.08;;;;;;;;;;7347395;19;20150;-73
2022/03/19 03:35:57;;;;;;;54.15;32.17;;;;;;;;;;7353647;19;21810;-73
2022/03/19 03:38:28;;;;;;;49.22;31.52;;;;;;;;;;7347898;19;20142;-72
2022/03/19 03:41:03;;;;;;;54.28;33.25;;;;;;;;;;7356515;19;20127;-72
2022/03/19 03:43:35;;;;;;;54.08;31.98;;;;;;;;;;7350843;19;20526;-73
2022/03/19 03:46:05;;;;;;;59.10;32.60;;;;;;;;;;7349721;19;21028;-73
2022/03/19 03:48:36;;;;;;;50.90;30.75;;;;;;;;;;7353470;19;20139;-72
2022/03/19 03:51:06;;;;;;;58.85;34.38;;;;;;;;;;7347829;19;20135;-73
2022/03/19 03:53:37;;;;;;;54.08;34.13;;;;;;;;;;7345051;19;20598;-74
2022/03/19 03:56:11;;;;;;;53.92;33.60;;;;;;;;;;7353633;19;20147;-73
2022/03/19 03:58:41;;;;;;;52.35;32.38;;;;;;;;;;7356897;19;20236;-73
2022/03/19 04:01:11;;;;;;;51.85;31.83;;;;;;;;;;7348868;19;20147;-73
2022/03/19 04:03:45;;;;;;;55.35;34.05;;;;;;;;;;7348808;19;20150;-73
2022/03/19 04:06:15;;;;;;;54.65;32.28;;;;;;;;;;7345865;19;20138;-73
2022/03/19 04:08:47;;;;;;;52.80;32.45;;;;;;;;;;7351974;19;20263;-73
2022/03/19 04:11:19;;;;;;;53.40;30.15;;;;;;;;;;7356142;19;20143;-74
2022/03/19 04:13:48;;;;;;;51.20;31.77;;;;;;;;;;7344342;19;20142;-73
2022/03/19 04:16:18;;;;;;;49.95;32.03;;;;;;;;;;7352330;19;21028;-73
2022/03/19 04:18:48;;;;;;;47.17;31.33;;;;;;;;;;7348236;19;20160;-72
2022/03/19 04:21:17;;;;;;;51.78;32.15;;;;;;;;;;7346377;19;20164;-72
2022/03/19 04:23:50;;;;;;;47.13;30.00;;;;;;;;;;7369384;19;20131;-73
2022/03/19 04:26:22;;;;;;;49.45;31.65;;;;;;;;;;7358128;19;20131;-73
2022/03/19 04:28:51;;;;;;;57.40;33.00;;;;;;;;;;7353854;19;20152;-72
2022/03/19 04:31:21;;;;;;;55.40;32.85;;;;;;;;;;7348937;19;20150;-73
2022/03/19 04:33:51;;;;;;;49.67;30.60;;;;;;;;;;7345108;19;20501;-73
2022/03/19 04:36:30;;;;;;;51.38;30.63;;;;;;;;;;7346074;19;21327;-73
2022/03/19 04:38:59;;;;;;;45.10;28.60;;;;;;;;;;7345846;19;21062;-73
2022/03/19 04:41:32;;;;;;;51.55;32.83;;;;;;;;;;7352623;19;20150;-72
2022/03/19 04:44:02;;;;;;;49.75;29.42;;;;;;;;;;7355779;19;20136;-73
2022/03/19 04:46:31;;;;;;;49.90;30.60;;;;;;;;;;7347049;19;20148;-72
2022/03/19 04:49:01;;;;;;;47.60;32.42;;;;;;;;;;7350019;19;20152;-73
2022/03/19 04:51:32;;;;;;;51.75;30.38;;;;;;;;;;7343297;19;20253;-73
2022/03/19 04:54:02;;;;;;;53.30;30.75;;;;;;;;;;7358681;19;20209;-74
2022/03/19 04:56:36;;;;;;;46.33;30.50;;;;;;;;;;7353390;19;20958;-73
2022/03/19 04:59:06;;;;;;;54.88;30.42;;;;;;;;;;7352781;19;21113;-73
2022/03/19 05:01:36;;;;;;;47.88;29.42;;;;;;;;;;7342865;19;20152;-73
2022/03/19 05:04:10;;;;;;;51.85;30.17;;;;;;;;;;7344476;19;20206;-72
2022/03/19 05:06:42;;;;;;;48.22;30.98;;;;;;;;;;7349445;19;20132;-73
2022/03/19 05:11:59;;;;;;;41.85;28.52;;;;;;;;;;7367530;19;20752;-74
2022/03/19 05:14:28;;;;;;;47.75;28.83;;;;;;;;;;7363147;19;20627;-74
2022/03/19 05:16:58;;;;;;;44.17;29.10;;;;;;;;;;7344091;19;20147;-75
2022/03/19 05:19:30;;;;;;;47.78;29.75;;;;;;;;;;7344959;19;20139;-74
2022/03/19 05:22:00;;;;;;;51.40;30.00;;;;;;;;;;7347948;19;20253;-75
2022/03/19 05:24:29;;;;;;;52.65;28.42;;;;;;;;;;7346053;19;20175;-74
2022/03/19 05:27:02;;;;;;;47.88;29.77;;;;;;;;;;7357879;19;20231;-74
2022/03/19 05:29:34;;;;;;;49.67;31.52;;;;;;;;;;7362981;19;20123;-74
2022/03/19 05:32:03;;;;;;;50.60;30.45;;;;;;;;;;7353357;19;20547;-75
2022/03/19 05:34:34;;;;;;;45.30;28.00;;;;;;;;;;7348093;19;20151;-74
2022/03/19 05:37:04;;;;;;;51.47;29.88;;;;;;;;;;7347501;19;20147;-74
2022/03/19 05:39:36;;;;;;;44.08;28.92;;;;;;;;;;7355112;19;20156;-74
2022/03/19 05:42:09;;;;;;;50.33;31.63;;;;;;;;;;7347665;19;20893;-73
2022/03/19 05:44:39;;;;;;;44.45;28.27;;;;;;;;;;7353803;19;20134;-74
2022/03/19 05:47:08;;;;;;;54.10;30.15;;;;;;;;;;7358040;19;20179;-73
2022/03/19 05:49:38;;;;;;;45.67;29.70;;;;;;;;;;7353980;19;20874;-74
2022/03/19 05:52:08;;;;;;;53.72;28.42;;;;;;;;;;7366397;19;20143;-74
2022/03/19 05:54:40;;;;;;;48.60;29.77;;;;;;;;;;7343586;19;20786;-75
2022/03/19 05:57:12;;;;;;;48.78;29.02;;;;;;;;;;7346880;19;20152;-75
2022/03/19 05:59:41;;;;;;;47.78;28.98;;;;;;;;;;7355480;19;20140;-75
2022/03/19 06:02:11;;;;;;;45.35;28.88;;;;;;;;;;7362181;19;20150;-75
2022/03/19 06:04:43;;;;;;;52.72;30.17;;;;;;;;;;7354062;19;20173;-76
2022/03/19 06:07:12;;;;;;;42.45;28.08;;;;;;;;;;7350746;19;20979;-75
2022/03/19 06:09:44;;;;;;;45.45;26.80;;;;;;;;;;7342852;19;20187;-75
2022/03/19 06:12:17;;;;;;;57.10;29.88;;;;;;;;;;7347799;19;20140;-75
2022/03/19 06:14:46;;;;;;;42.72;28.33;;;;;;;;;;7343417;19;20139;-75
2022/03/19 06:17:19;;;;;;;41.88;27.17;;;;;;;;;;7361907;19;20142;-74
2022/03/19 06:19:48;;;;;;;52.60;29.05;;;;;;;;;;7365824;19;20592;-74
2022/03/19 06:22:18;;;;;;;43.40;28.60;;;;;;;;;;7371325;19;20152;-77
2022/03/19 06:24:48;;;;;;;49.47;29.48;;;;;;;;;;7360418;19;20143;-75
2022/03/19 06:27:20;;;;;;;47.75;28.70;;;;;;;;;;7362345;19;20858;-75
2022/03/19 06:29:50;;;;;;;48.58;32.28;;;;;;;;;;7352364;19;20733;-76
2022/03/19 06:32:20;;;;;;;45.00;30.52;;;;;;;;;;7346301;19;20870;-76
2022/03/19 06:34:54;;;;;;;46.35;29.02;;;;;;;;;;7346347;19;20219;-77
2022/03/19 06:37:22;;;;;;;45.58;28.10;;;;;;;;;;7345335;19;20149;-77
2022/03/19 06:39:56;;;;;;;49.15;30.27;;;;;;;;;;7366321;19;20897;-76
2022/03/19 06:42:31;;;;;;;40.38;27.70;;;;;;;;;;7395487;19;20159;-74
2022/03/19 06:45:00;;;;;;;45.30;28.23;;;;;;;;;;7385460;19;20139;-79
2022/03/19 06:47:32;;;;;;;46.78;28.98;;;;;;;;;;7388847;19;20124;-76
2022/03/19 06:50:03;;;;;;;49.40;30.73;;;;;;;;;;7391247;19;20956;-77
2022/03/19 06:52:35;;;;;;;45.08;27.90;;;;;;;;;;7398626;19;20188;-77
2022/03/19 06:55:05;;;;;;;40.60;26.70;;;;;;;;;;7394827;19;20601;-78
2022/03/19 06:57:37;;;;;;;44.33;28.60;;;;;;;;;;7388246;19;20132;-80
2022/03/19 07:00:07;;;;;;;46.38;28.95;;;;;;;;;;7391049;19;20148;-74
2022/03/19 07:02:48;;;;;;;49.13;29.08;;;;;;;;;;7403707;19;20131;-77
2022/03/19 07:05:21;;;;;;;45.05;29.50;;;;;;;;;;7418032;19;20208;-76
2022/03/19 07:07:51;;;;;;;42.92;27.65;;;;;;;;;;7420260;19;20128;-78
2022/03/19 07:10:20;;;;;;;40.17;26.90;;;;;;;;;;7435026;19;20132;-78
2022/03/19 07:12:54;;;;;;;41.58;26.48;;;;;;;;;;7435283;19;20195;-77
2022/03/19 07:15:27;;;;;;;39.77;25.90;;;;;;;;;;7435690;19;20127;-77
2022/03/19 07:17:57;;;;;;;40.57;25.90;;;;;;;;;;7435648;19;20408;-78
2022/03/19 07:20:26;;;;;;;39.03;27.17;;;;;;;;;;7436580;19;20422;-77
2022/03/19 07:22:58;;;;;;;46.40;29.63;;;;;;;;;;7409140;19;20396;-78
2022/03/19 07:25:28;;;;;;;44.67;28.75;;;;;;;;;;7397770;19;20388;-77
2022/03/19 07:28:02;;;;;;;45.20;26.70;;;;;;;;;;7393779;19;20173;-78
2022/03/19 07:30:35;;;;;;;42.00;26.00;;;;;;;;;;7387101;19;20499;-77
2022/03/19 07:33:05;;;;;;;40.77;26.97;;;;;;;;;;7384302;19;20387;-77
2022/03/19 07:35:34;;;;;;;37.57;26.37;;;;;;;;;;7381638;19;20412;-79
2022/03/19 07:38:06;;;;;;;38.60;25.43;;;;;;;;;;7379447;19;20419;-77
2022/03/19 07:43:20;;;;;;;35.97;23.07;;;;;;;;;;7378441;19;20393;-77
2022/03/19 07:45:50;;;;;;;39.27;24.30;;;;;;;;;;7378017;19;20392;-77
2022/03/19 07:48:20;;;;;;;36.40;26.80;;;;;;;;;;7376413;19;20412;-78
2022/03/19 07:50:49;;;;;;;35.03;23.90;;;;;;;;;;7378150;19;20415;-77
2022/03/19 07:53:19;;;;;;;35.77;23.20;;;;;;;;;;7375490;19;20401;-76
2022/03/19 07:55:50;;;;;;;39.40;24.90;;;;;;;;;;7376498;19;20460;-76
2022/03/19 07:58:25;;;;;;;39.50;23.37;;;;;;;;;;7379540;19;20400;-77
2022/03/19 08:00:55;;;;;;;37.47;24.57;;;;;;;;;;7381826;19;20927;-79
2022/03/19 08:03:27;;;;;;;36.70;24.60;;;;;;;;;;7380772;19;20377;-77
2022/03/19 08:05:57;;;;;;;34.30;25.10;;;;;;;;;;7372983;19;20487;-77
2022/03/19 08:08:27;;;;;;;35.90;22.43;;;;;;;;;;7375520;19;20399;-76
2022/03/19 08:10:56;;;;;;;38.87;23.20;;;;;;;;;;7375580;19;20427;-77
2022/03/19 08:13:28;;;;;;;36.87;23.53;;;;;;;;;;7372917;19;20424;-76
2022/03/19 08:15:58;;;;;;;38.20;24.23;;;;;;;;;;7370859;19;20420;-76
2022/03/19 08:18:29;;;;;;;31.73;22.57;;;;;;;;;;7373507;19;20472;-77
2022/03/19 08:20:59;;;;;;;34.37;22.67;;;;;;;;;;7372980;19;20364;-76
2022/03/19 08:23:29;;;;;;;33.33;23.53;;;;;;;;;;7374664;19;20991;-77
2022/03/19 08:25:59;;;;;;;34.67;22.10;;;;;;;;;;7370223;19;20499;-77
2022/03/19 08:28:31;;;;;;;32.83;22.47;;;;;;;;;;7370682;19;20376;-77
2022/03/19 08:31:01;;;;;;;34.83;23.23;;;;;;;;;;7375116;19;20415;-77
2022/03/19 08:33:30;;;;;;;33.40;21.17;;;;;;;;;;7368125;19;20413;-77
2022/03/19 08:36:00;;;;;;;29.80;20.63;;;;;;;;;;7369623;19;20436;-77
2022/03/19 08:41:14;;;;;;;31.40;22.40;;;;;;;;;;7368343;19;20454;-77
2022/03/19 08:43:46;;;;;;;30.63;22.00;;;;;;;;;;7367605;19;20412;-78
2022/03/19 08:46:16;;;;;;;28.47;20.13;;;;;;;;;;7374141;19;20408;-78
2022/03/19 08:48:45;;;;;;;28.47;21.30;;;;;;;;;;7366692;19;21066;-78
2022/03/19 08:53:59;;;;;;;25.33;19.60;;;;;;;;;;7366810;19;20396;-78
2022/03/19 08:56:29;;;;;;;27.80;20.47;;;;;;;;;;7372126;19;20434;-77
2022/03/19 08:59:01;;;;;;;25.17;19.80;;;;;;;;;;7374384;19;20483;-78
2022/03/19 09:01:31;;;;;;;23.80;20.03;;;;;;;;;;7365857;19;20491;-78
2022/03/19 09:04:01;;;;;;;24.40;19.30;;;;;;;;;;7366674;19;20412;-78
2022/03/19 09:06:30;;;;;;;26.30;20.50;;;;;;;;;;7366292;19;20412;-78
2022/03/19 09:09:02;;;;;;;25.50;20.80;;;;;;;;;;7367643;19;20412;-77
2022/03/19 09:11:32;;;;;;;27.00;21.90;;;;;;;;;;7368650;19;20422;-78
2022/03/19 09:14:05;;;;;;;22.80;19.90;;;;;;;;;;7364326;19;20423;-78
2022/03/19 09:16:35;;;;;;;25.50;20.70;;;;;;;;;;7363083;19;21975;-78
2022/03/19 09:19:05;;;;;;;25.93;20.90;;;;;;;;;;7365432;19;20404;-78
2022/03/19 09:21:35;;;;;;;29.03;21.97;;;;;;;;;;7352944;19;20416;-77
2022/03/19 09:24:04;;;;;;;25.10;22.23;;;;;;;;;;7360959;19;22025;-78
2022/03/19 09:26:34;;;;;;;27.30;22.77;;;;;;;;;;7364631;19;20396;-78
2022/03/19 09:29:06;;;;;;;25.07;21.83;;;;;;;;;;7370821;19;20428;-78
2022/03/19 09:31:36;;;;;;;26.27;21.60;;;;;;;;;;7366841;19;20427;-79
2022/03/19 09:34:05;;;;;;;26.07;21.17;;;;;;;;;;7363831;19;20947;-78
2022/03/19 09:36:35;;;;;;;26.20;22.10;;;;;;;;;;7362616;19;20420;-78
2022/03/19 09:39:05;;;;;;;26.20;23.37;;;;;;;;;;7366293;19;20440;-78
2022/03/19 09:41:35;;;;;;;27.07;24.27;;;;;;;;;;7369619;19;20424;-78
2022/03/19 09:44:07;;;;;;;25.70;23.00;;;;;;;;;;7362675;19;20758;-78
2022/03/19 09:46:37;;;;;;;24.80;20.60;;;;;;;;;;7365380;19;20388;-78
2022/03/19 09:49:10;;;;;;;25.67;21.73;;;;;;;;;;7363929;19;20412;-80
2022/03/19 09:51:44;;;;;;;27.93;24.27;;;;;;;;;;7366018;19;20393;-79
2022/03/19 09:54:15;;;;;;;27.20;24.27;;;;;;;;;;7364712;19;20431;-78
2022/03/19 09:56:45;;;;;;;27.73;24.07;;;;;;;;;;7367299;19;20522;-78
2022/03/19 09:59:22;;;;;;;25.23;22.50;;;;;;;;;;7361990;19;20419;-78
2022/03/19 10:01:52;;;;;;;26.30;23.50;;;;;;;;;;7364979;19;20734;-78
2022/03/19 10:04:21;;;;;;;26.27;23.50;;;;;;;;;;7374813;19;20393;-78
2022/03/19 10:09:34;;;;;;;27.00;23.60;;;;;;;;;;7404517;19;20397;-79
2022/03/19 10:12:04;;;;;;;25.53;22.90;;;;;;;;;;7407824;19;20405;-79
2022/03/19 10:14:36;;;;;;;26.67;23.43;;;;;;;;;;7402178;19;20432;-79
2022/03/19 10:17:06;;;;;;;24.80;22.07;;;;;;;;;;7405304;19;20400;-79
2022/03/19 10:19:35;;;;;;;25.70;21.10;;;;;;;;;;7406367;19;21247;-79
2022/03/19 10:22:10;;;;;;;27.20;24.00;;;;;;;;;;7395196;19;20434;-79
2022/03/19 10:24:40;;;;;;;26.43;23.50;;;;;;;;;;7397480;19;20997;-80
2022/03/19 10:27:20;;;;;;;24.97;22.30;;;;;;;;;;7401963;19;20400;-78
2022/03/19 10:30:03;;;;;;;24.23;21.70;;;;;;;;;;7400087;19;20437;-78
2022/03/19 10:32:33;;;;;;;24.93;21.63;;;;;;;;;;7394582;19;20944;-79
2022/03/19 10:35:03;;;;;;;25.70;22.90;;;;;;;;;;7378120;19;20936;-78
2022/03/19 10:37:37;;;;;;;26.30;23.40;;;;;;;;;;7376355;19;21116;-78
2022/03/19 10:40:08;;;;;;;28.87;25.87;;;;;;;;;;7381616;19;20425;-80
2022/03/19 10:42:39;;;;;;;25.87;23.30;;;;;;;;;;7381105;19;20442;-80
2022/03/19 10:45:12;;;;;;;26.23;23.53;;;;;;;;;;7377328;19;20404;-79
2022/03/19 10:47:43;;;;;;;28.27;24.97;;;;;;;;;;7376694;19;20416;-78
2022/03/19 10:50:13;;;;;;;25.03;22.50;;;;;;;;;;7383641;19;20376;-79
2022/03/19 10:52:43;;;;;;;26.70;23.90;;;;;;;;;;7374591;19;20450;-79
2022/03/19 10:55:13;;;;;;;25.70;23.03;;;;;;;;;;7372905;19;20975;-80
2022/03/19 10:57:43;;;;;;;27.43;24.53;;;;;;;;;;7382974;19;20854;-79
2022/03/19 11:00:16;;;;;;;29.53;26.33;;;;;;;;;;7377883;19;20416;-78
2022/03/19 11:02:48;;;;;;;27.53;23.67;;;;;;;;;;7374517;19;21245;-79
2022/03/19 11:05:21;;;;;;;27.73;24.80;;;;;;;;;;7375544;19;20411;-79
2022/03/19 11:07:51;;;;;;;28.03;25.23;;;;;;;;;;7373182;19;20400;-78
2022/03/19 11:10:24;;;;;;;28.60;25.60;;;;;;;;;;7373910;19;20395;-78
2022/03/19 11:12:56;;;;;;;29.17;25.43;;;;;;;;;;7380273;19;20412;-78
2022/03/19 11:15:30;;;;;;;24.00;21.60;;;;;;;;;;7373151;19;21002;-78
2022/03/19 11:18:01;;;;;;;25.80;23.10;;;;;;;;;;7375007;19;20596;-79
2022/03/19 11:20:30;;;;;;;25.10;20.87;;;;;;;;;;7372614;19;21002;-80
2022/03/19 11:23:04;;;;;;;22.90;20.60;;;;;;;;;;7370946;19;20396;-79
2022/03/19 11:25:40;;;;;;;24.20;21.60;;;;;;;;;;7371019;19;20491;-79
2022/03/19 11:28:11;;;;;;;21.07;18.87;;;;;;;;;;7370308;19;20473;-79
2022/03/19 11:30:45;;;;;;;21.80;19.57;;;;;;;;;;7375649;19;20408;-79
2022/03/19 11:33:19;;;;;;;19.93;17.83;;;;;;;;;;7370106;19;20421;-78
2022/03/19 11:35:50;;;;;;;18.00;16.10;;;;;;;;;;7367629;19;20404;-79
2022/03/19 11:38:20;;;;;;;16.57;14.97;;;;;;;;;;7368071;19;20427;-79
2022/03/19 11:40:54;;;;;;;15.60;13.93;;;;;;;;;;7370279;19;20416;-80
2022/03/19 11:43:31;;;;;;;15.73;14.13;;;;;;;;;;7368122;19;20414;-79
2022/03/19 11:46:06;;;;;;;16.47;14.77;;;;;;;;;;7371482;19;20408;-80
2022/03/19 11:48:51;;;;;;;14.90;13.30;;;;;;;;;;7369006;19;20400;-79
2022/03/19 11:51:22;;;;;;;16.10;13.03;;;;;;;;;;7365428;19;20958;-79
2022/03/19 11:53:56;;;;;;;14.40;12.90;;;;;;;;;;7382035;19;20382;-78
2022/03/19 11:56:26;;;;;;;15.60;12.43;;;;;;;;;;7365571;19;20982;-78
2022/03/19 11:58:56;;;;;;;14.60;13.00;;;;;;;;;;7366587;19;20418;-78
2022/03/19 12:01:42;;;;;;;14.57;12.43;;;;;;;;;;7371278;19;20411;-78
2022/03/19 12:04:17;;;;;;;15.43;12.90;;;;;;;;;;7365933;19;20451;-77
2022/03/19 12:06:54;;;;;;;13.07;10.90;;;;;;;;;;7368896;19;21309;-78
2022/03/19 12:09:33;;;;;;;12.83;11.30;;;;;;;;;;7376454;19;20368;-78
2022/03/19 12:12:26;;;;;;;12.30;10.50;;;;;;;;;;7364831;19;20924;-79
2022/03/19 12:14:56;;;;;;;14.40;11.50;;;;;;;;;;7367050;19;20427;-78
2022/03/19 12:17:32;;;;;;;16.57;11.23;;;;;;;;;;7369555;19;20700;-79
2022/03/19 12:20:07;;;;;;;12.17;9.77;;;;;;;;;;7367340;19;20416;-79
2022/03/19 12:22:38;;;;;;;11.40;9.97;;;;;;;;;;7368189;19;20773;-78
2022/03/19 12:25:12;;;;;;;11.43;9.90;;;;;;;;;;7366591;19;20406;-78
2022/03/19 12:27:41;;;;;;;10.80;8.77;;;;;;;;;;7366634;19;21114;-80
2022/03/19 12:30:12;;;;;;;12.07;10.10;;;;;;;;;;7364933;19;21093;-78
2022/03/19 12:32:54;;;;;;;10.70;9.40;;;;;;;;;;7373282;19;20944;-78
2022/03/19 12:35:27;;;;;;;14.33;10.13;;;;;;;;;;7365191;19;20408;-79
2022/03/19 12:37:57;;;;;;;11.07;9.33;;;;;;;;;;7363837;19;20408;-79
2022/03/19 12:40:28;;;;;;;11.37;9.80;;;;;;;;;;7364063;19;20761;-80
2022/03/19 12:42:58;;;;;;;15.00;10.67;;;;;;;;;;7370831;19;20953;-80
2022/03/19 12:45:40;;;;;;;12.33;9.70;;;;;;;;;;7364974;19;20428;-79
2022/03/19 12:48:11;;;;;;;13.53;11.13;;;;;;;;;;7371600;19;20455;-79
2022/03/19 12:50:50;;;;;;;15.27;10.93;;;;;;;;;;7365577;19;20743;-78
2022/03/19 12:53:19;;;;;;;12.20;9.67;;;;;;;;;;7401607;19;20417;-78
2022/03/19 12:55:49;;;;;;;10.73;9.30;;;;;;;;;;7406198;19;20443;-78
2022/03/19 12:58:18;;;;;;;14.20;9.83;;;;;;;;;;7414828;19;20405;-79
2022/03/19 13:00:57;;;;;;;12.77;9.30;;;;;;;;;;7410649;19;20415;-79
2022/03/19 13:03:32;;;;;;;10.67;8.20;;;;;;;;;;7413061;19;20416;-79
2022/03/19 13:06:04;;;;;;;11.03;8.80;;;;;;;;;;7409915;19;20404;-78
2022/03/19 13:08:45;;;;;;;11.60;7.90;;;;;;;;;;7422399;19;20417;-78
2022/03/19 13:11:15;;;;;;;9.70;7.43;;;;;;;;;;7420740;19;20467;-78
2022/03/19 13:13:45;;;;;;;10.27;8.17;;;;;;;;;;7425033;19;20408;-79
2022/03/19 13:16:15;;;;;;;11.70;8.10;;;;;;;;;;7422799;19;20420;-78
2022/03/19 13:18:47;;;;;;;10.43;7.97;;;;;;;;;;7403056;19;20452;-77
2022/03/19 13:21:22;;;;;;;9.50;8.07;;;;;;;;;;7398700;19;20447;-79
2022/03/19 13:23:51;;;;;;;9.33;8.33;;;;;;;;;;7383848;19;20408;-79
2022/03/19 13:26:22;;;;;;;8.60;7.47;;;;;;;;;;7380310;19;20446;-79
2022/03/19 13:29:02;;;;;;;10.33;7.87;;;;;;;;;;7378735;19;20940;-77
2022/03/19 13:31:31;;;;;;;10.47;8.37;;;;;;;;;;7377090;19;20403;-79
2022/03/19 13:34:04;;;;;;;8.50;7.30;;;;;;;;;;7376924;19;20424;-79
2022/03/19 13:36:38;;;;;;;7.37;6.33;;;;;;;;;;7373416;19;20442;-78
2022/03/19 13:39:08;;;;;;;10.27;7.00;;;;;;;;;;7377998;19;20456;-79
2022/03/19 13:41:39;;;;;;;8.90;6.70;;;9.50;75.10;;;;;;7373577;19;20455;-79
2022/03/19 13:44:09;;;;;;;8.90;7.60;;;29.50;16.00;;;;;;7371914;19;20419;-79
2022/03/19 13:46:39;;;;;;;8.10;6.80;;;28.90;15.90;;;;;;7368823;19;20507;-79
2022/03/19 13:49:17;;;;;;;8.87;7.10;;;27.60;16.90;;;;;;7373959;19;20491;-80
2022/03/19 13:51:51;;;;;;;7.70;6.00;;;26.30;17.80;;;;;;7373594;19;20509;-78
2022/03/19 13:54:21;;;;;;;6.73;5.50;;;26.60;17.90;;;;;;7368795;19;20509;-79
2022/03/19 13:56:57;;;;;;;8.60;6.73;;;26.10;18.00;;;;;;7368195;19;20413;-79
2022/03/19 13:59:31;;;;;;;8.13;6.20;;;24.30;19.10;;;;;;7372002;19;20420;-78
2022/03/19 14:02:05;;;;;;;7.50;5.83;;;22.30;20.40;;;;;;7371598;19;20403;-78
2022/03/19 14:04:38;;;;;;;7.37;5.20;;;20.80;20.70;;;;;;7369136;19;20416;-78
2022/03/19 14:07:10;;;;;;;7.40;5.57;;;19.50;21.10;;;;;;7367482;19;20411;-78
2022/03/19 14:09:46;;;;;;;7.27;4.80;;;18.30;21.80;;;;;;7366793;19;20760;-79
2022/03/19 14:12:34;;;;;;;10.83;5.57;;;17.70;22.40;;;;;;7370250;19;20404;-79
2022/03/19 14:15:04;;;;;;;8.70;5.37;;;17.40;23.20;;;;;;7386908;19;20379;-79
2022/03/19 14:17:47;;;;;;;6.50;4.93;;;18.10;23.20;;;;;;7386753;19;20387;-79
2022/03/19 14:20:18;;;;;;;5.87;4.40;;;19.50;22.20;;;;;;7373487;19;22203;-79
2022/03/19 14:22:51;;;;;;;9.70;4.90;;;;;;;;;;7374164;19;20411;-78
2022/03/19 14:25:22;;;;;;;5.60;4.40;;;;;;;;;;7372969;19;20453;-78
2022/03/19 14:28:05;;;;;;;7.00;4.50;;;;;;;;;;7371644;19;21596;-79
2022/03/19 14:30:35;;;;;;;5.77;4.17;;;;;;;;;;7374880;19;20837;-78
2022/03/19 14:33:04;;;;;;;5.13;3.93;;;;;;;;;;7371978;19;20979;-78
2022/03/19 14:35:41;;;;;;;6.97;4.70;;;;;;;;;;7374685;19;20400;-77
2022/03/19 14:38:14;;;;;;;7.40;3.87;;;;;;;;;;7371165;19;20383;-78
2022/03/19 14:40:44;;;;;;;4.23;3.63;;;;;;;;;;7370986;19;20392;-78
2022/03/19 14:43:15;;;;;;;4.70;3.53;;;;;;;;;;7370793;19;20409;-78
2022/03/19 14:45:46;;;;;;;4.70;3.83;;;;;;;;;;7375891;19;20782;-78
2022/03/19 14:48:15;;;;;;;6.47;3.50;;;;;;;;;;7370631;19;20800;-78
2022/03/19 14:50:45;;;;;;;5.10;3.60;;;;;;;;;;7376540;19;20459;-78
2022/03/19 14:53:17;;;;;;;4.70;3.40;;;;;;;;;;7370338;19;20467;-78
2022/03/19 14:55:49;;;;;;;4.40;3.00;;;;;;;;;;7368368;19;20952;-79